Time;durP1;ratioP1;P1;durP2;ratioP2;P2;SDS_P1;SDS_P2;PMS_P1;PMS_P2;Temp;Humidity;BMP_temperature;BMP_pressure;BME280_temperature;BME280_humidity;BME280_pressure;Samples;Min_cycle;Max_cycle;Signal;HPM_P1;HPM_P2
2023/11/17 00:08:36;;;;;;;43.90;26.40;;;;;;;3.42;100.00;98789.41;435668;1251;126023;-63
2023/11/17 00:18:42;;;;;;;40.90;27.80;;;;;;;3.44;100.00;98799.86;435616;1254;141044;-63
2023/11/17 00:28:50;;;;;;;43.30;27.50;;;;;;;3.43;100.00;98792.30;436178;1254;140716;-62
2023/11/17 00:38:56;;;;;;;46.40;27.10;;;;;;;3.43;100.00;98780.73;435983;1254;139886;-62
2023/11/17 00:49:03;;;;;;;46.30;26.30;;;;;;;3.43;100.00;98775.52;435715;1251;139387;-63
2023/11/17 00:59:11;;;;;;;48.60;30.50;;;;;;;3.44;100.00;98782.90;437706;1249;140709;-63
2023/11/17 01:09:18;;;;;;;51.70;30.40;;;;;;;3.44;100.00;98777.21;436033;1251;139341;-63
2023/11/17 01:19:25;;;;;;;46.50;29.20;;;;;;;3.43;100.00;98772.77;435648;1251;140210;-63
2023/11/17 01:29:32;;;;;;;63.70;31.00;;;;;;;3.38;100.00;98773.01;436356;1251;141327;-63
2023/11/17 01:39:38;;;;;;;54.00;26.80;;;;;;;3.33;100.00;98768.02;436254;1253;139734;-64
2023/11/17 01:49:45;;;;;;;47.20;25.90;;;;;;;3.28;100.00;98770.16;437055;1251;141176;-63
2023/11/17 01:59:52;;;;;;;46.40;25.90;;;;;;;3.21;100.00;98764.07;436026;1254;139354;-63
2023/11/17 02:10:07;;;;;;;54.70;25.50;;;;;;;3.19;100.00;98757.08;435394;1254;139152;-63
2023/11/17 02:20:19;;;;;;;37.10;23.00;;;;;;;3.20;100.00;98762.08;435872;1253;140827;-63
2023/11/17 02:30:27;;;;;;;44.10;24.30;;;;;;;3.18;100.00;98754.71;437155;1251;139703;-62
2023/11/17 02:40:37;;;;;;;46.40;22.80;;;;;;;3.13;100.00;98754.45;437319;1251;139815;-62
2023/11/17 02:51:03;;;;;;;52.60;25.40;;;;;;;3.10;100.00;98746.61;436253;1249;139625;-64
2023/11/17 03:01:10;;;;;;;44.70;23.50;;;;;;;3.12;100.00;98746.20;435784;1254;139822;-63
2023/11/17 03:11:21;;;;;;;43.40;25.10;;;;;;;3.08;100.00;98741.66;435857;1250;139108;-62
2023/11/17 03:21:28;;;;;;;34.50;23.30;;;;;;;3.12;100.00;98733.19;435392;1253;139035;-63
2023/11/17 03:31:34;;;;;;;38.50;22.10;;;;;;;3.14;100.00;98734.83;435082;1251;139088;-63
2023/11/17 03:41:41;;;;;;;42.20;23.30;;;;;;;3.15;100.00;98736.02;435928;1251;139796;-62
2023/11/17 03:51:48;;;;;;;39.00;22.40;;;;;;;3.18;100.00;98738.62;435726;1253;140795;-62
2023/11/17 04:01:54;;;;;;;;;;;;;;;3.19;100.00;98740.67;436958;1250;139279;-63
2023/11/17 04:12:02;;;;;;;47.00;25.10;;;;;;;3.17;100.00;98738.50;436725;1250;125945;-63
2023/11/17 04:22:09;;;;;;;43.60;25.00;;;;;;;3.16;100.00;98736.63;436302;1251;139360;-63
2023/11/17 04:32:16;;;;;;;38.00;23.30;;;;;;;3.20;100.00;98745.65;436320;1253;138963;-63
2023/11/17 04:42:22;;;;;;;39.70;23.10;;;;;;;3.20;100.00;98745.64;436203;1253;140642;-64
2023/11/17 04:52:30;;;;;;;34.00;20.90;;;;;;;3.19;100.00;98745.50;436449;1248;139714;-63
2023/11/17 05:02:40;;;;;;;30.80;18.60;;;;;;;3.14;100.00;98752.48;436201;1253;139187;-64
2023/11/17 05:12:48;;;;;;;30.50;18.20;;;;;;;3.20;100.00;98756.68;436205;1250;139145;-63
2023/11/17 05:22:54;;;;;;;31.20;17.90;;;;;;;3.22;100.00;98762.48;437089;1250;139784;-63
2023/11/17 05:33:01;;;;;;;37.90;23.00;;;;;;;3.24;100.00;98769.84;437058;1250;139678;-63
2023/11/17 05:43:07;;;;;;;44.80;23.10;;;;;;;3.26;100.00;98772.55;436201;1253;140237;-62
2023/11/17 05:53:13;;;;;;;41.30;25.00;;;;;;;3.28;100.00;98781.05;436562;1248;140630;-63
2023/11/17 06:03:20;;;;;;;45.50;23.20;;;;;;;3.33;100.00;98792.56;436081;1251;140077;-62
2023/11/17 06:13:26;;;;;;;;;;;;;;;3.38;100.00;98792.72;437572;1253;139596;-62
2023/11/17 06:23:32;;;;;;;49.20;25.60;;;;;;;3.41;100.00;98788.10;437251;1253;126089;-63
2023/11/17 06:33:38;;;;;;;36.40;21.60;;;;;;;3.37;100.00;98788.10;436925;1251;139500;-63
2023/11/17 06:43:45;;;;;;;35.30;19.50;;;;;;;3.34;100.00;98795.30;436915;1253;139515;-62
2023/11/17 06:53:52;;;;;;;37.40;23.40;;;;;;;3.43;100.00;98807.89;435495;1251;139638;-62
2023/11/17 07:03:58;;;;;;;45.20;24.30;;;;;;;3.52;100.00;98817.32;435024;1251;142572;-62
2023/11/17 07:14:07;;;;;;;41.30;23.90;;;;;;;3.55;100.00;98822.36;435257;1254;139618;-63
2023/11/17 07:24:14;;;;;;;44.70;26.80;;;;;;;3.66;100.00;98830.31;437120;1251;139741;-63
2023/11/17 07:34:21;;;;;;;39.00;23.50;;;;;;;3.76;100.00;98831.08;435574;1251;140121;-62
2023/11/17 07:44:28;;;;;;;37.30;23.00;;;;;;;3.81;100.00;98837.08;436562;1251;140019;-64
2023/11/17 07:54:35;;;;;;;43.80;27.30;;;;;;;3.85;100.00;98844.33;435651;1253;139166;-66
2023/11/17 08:04:41;;;;;;;;;;;;;;;3.89;100.00;98860.06;436767;1250;140678;-64
2023/11/17 08:14:49;;;;;;;33.70;21.30;;;;;;;3.92;100.00;98858.67;436046;1249;125195;-71
2023/11/17 08:24:56;;;;;;;34.20;21.70;;;;;;;3.97;100.00;98865.75;437399;1252;139534;-67
2023/11/17 08:35:02;;;;;;;33.20;19.70;;;;;;;4.01;100.00;98877.52;436858;1250;139575;-70
2023/11/17 08:45:12;;;;;;;79.70;25.80;;;;;;;4.03;100.00;98883.64;436873;1253;138986;-76
2023/11/17 08:55:18;;;;;;;40.70;22.90;;;;;;;4.05;100.00;98902.23;438286;1250;139435;-65
2023/11/17 09:05:25;;;;;;;42.20;24.00;;;;;;;4.10;100.00;98912.08;435533;1253;139660;-72
2023/11/17 09:15:33;;;;;;;44.10;24.60;;;;;;;4.15;100.00;98919.80;438498;1253;139240;-73
2023/11/17 09:25:39;;;;;;;41.30;23.70;;;;;;;4.16;100.00;98927.90;436362;1253;139719;-68
2023/11/17 09:35:48;;;;;;;48.90;26.40;;;;;;;4.18;100.00;98929.50;435694;1253;139492;-71
2023/11/17 09:45:59;;;;;;;44.10;26.00;;;;;;;4.17;100.00;98941.16;439520;1253;140833;-72
2023/11/17 09:56:10;;;;;;;40.50;24.70;;;;;;;4.16;100.00;98948.52;436337;1250;139797;-65
2023/11/17 10:06:16;;;;;;;46.00;25.60;;;;;;;4.15;100.00;98941.79;436020;1254;139042;-69
2023/11/17 10:16:24;;;;;;;43.90;26.80;;;;;;;4.16;100.00;98944.17;435867;1250;139150;-68
2023/11/17 10:26:31;;;;;;;50.10;28.70;;;;;;;4.20;100.00;98955.23;436609;1254;139053;-64
2023/11/17 10:36:57;;;;;;;60.20;32.70;;;;;;;4.19;100.00;98959.29;435737;1255;139207;-67
2023/11/17 10:47:07;;;;;;;59.20;32.10;;;;;;;4.14;100.00;98957.94;436103;1252;140004;-70
2023/11/17 10:57:15;;;;;;;54.00;31.10;;;;;;;4.06;100.00;98958.00;436435;1250;139261;-67
2023/11/17 11:07:23;;;;;;;55.30;31.20;;;;;;;4.01;100.00;98962.37;436131;1253;139609;-66
2023/11/17 11:17:32;;;;;;;54.60;31.20;;;;;;;3.98;100.00;98977.23;436574;1253;139006;-68
2023/11/17 11:27:40;;;;;;;56.70;31.40;;;;;;;3.98;100.00;98985.19;436619;1251;139373;-70
2023/11/17 11:37:46;;;;;;;50.80;32.50;;;;;;;3.95;100.00;98990.01;436283;1250;140547;-70
2023/11/17 11:48:00;;;;;;;56.90;30.40;;;;;;;3.92;100.00;98994.47;436084;1254;140464;-62
2023/11/17 11:58:08;;;;;;;48.10;27.90;;;;;;;3.87;100.00;98997.48;436110;1254;142984;-66
2023/11/17 12:08:28;;;;;;;55.00;31.60;;;;;;;3.80;100.00;99006.28;436925;1252;139585;-65
2023/11/17 12:18:35;;;;;;;50.40;28.70;;;;;;;3.73;100.00;99011.61;436739;1252;140296;-70
2023/11/17 12:28:44;;;;;;;44.90;29.30;;;;;;;3.65;100.00;99018.19;439580;1250;139311;-70
2023/11/17 12:38:56;;;;;;;43.20;24.50;;;;;;;3.63;100.00;99023.26;436372;1253;139885;-67
2023/11/17 12:49:07;;;;;;;38.20;23.00;;;;;;;3.67;100.00;99024.34;437592;1250;140754;-66
2023/11/17 12:59:14;;;;;;;25.10;18.30;;;;;;;3.68;100.00;99035.23;435705;1254;139417;-75
2023/11/17 13:09:20;;;;;;;23.50;16.10;;;;;;;3.69;100.00;99032.73;437436;1252;140041;-63
2023/11/17 13:19:29;;;;;;;17.90;13.40;;;;;;;3.75;100.00;99039.01;436058;1253;139200;-64
2023/11/17 13:29:40;;;;;;;16.10;11.60;;;;;;;3.78;100.00;99039.42;436127;1250;139683;-62
2023/11/17 13:39:48;;;;;;;18.20;13.70;;;;;;;3.74;100.00;99052.06;435933;1253;139134;-64
2023/11/17 13:49:55;;;;;;;15.90;12.80;;;;;;;3.67;100.00;99064.66;436104;1250;140450;-65
2023/11/17 14:00:02;;;;;;;19.20;14.20;;;;;;;3.61;100.00;99069.42;436012;1253;139272;-69
2023/11/17 14:10:11;;;;;;;16.40;13.60;;;;;;;3.54;100.00;99078.55;440486;1253;139732;-68
2023/11/17 14:20:21;;;;;;;19.30;14.90;;;;;;;3.45;100.00;99085.01;438016;1253;140194;-67
2023/11/17 14:30:28;;;;;;;18.20;12.90;;;;;;;3.37;100.00;99093.13;437968;1253;139550;-65
2023/11/17 14:40:35;;;;;;;12.20;10.10;;;;;;;3.23;100.00;99108.41;435784;1253;142073;-65
2023/11/17 14:50:40;;;;;;;;;;;;;;;3.04;100.00;99128.88;435838;1252;140159;-69
2023/11/17 15:00:46;;;;;;;11.60;9.50;;;;;;;2.89;100.00;99145.56;438555;1254;129305;-63
2023/11/17 15:10:54;;;;;;;14.20;11.30;;;;;;;2.78;100.00;99157.71;435635;1253;139521;-71
2023/11/17 15:21:00;;;;;;;14.00;11.60;;;;;;;2.73;100.00;99164.16;436821;1253;139585;-72
2023/11/17 15:31:10;;;;;;;14.90;13.20;;;;;;;2.71;100.00;99168.55;436936;1253;139619;-72
2023/11/17 15:41:18;;;;;;;16.30;14.30;;;;;;;2.68;100.00;99171.27;436339;1254;140531;-72
2023/11/17 15:51:25;;;;;;;13.70;12.20;;;;;;;2.62;100.00;99182.53;436681;1254;139313;-71
2023/11/17 16:01:31;;;;;;;14.40;12.40;;;;;;;2.50;100.00;99206.64;436664;1254;139539;-71
2023/11/17 16:11:39;;;;;;;12.00;10.80;;;;;;;2.42;100.00;99219.59;436975;1253;139336;-71
2023/11/17 16:21:46;;;;;;;11.10;9.60;;;;;;;2.34;100.00;99224.66;436695;1255;139779;-72
2023/11/17 16:31:53;;;;;;;10.10;9.10;;;;;;;2.26;100.00;99239.98;436585;1253;139211;-71
2023/11/17 16:41:59;;;;;;;9.60;8.70;;;;;;;2.19;100.00;99252.84;435524;1255;138973;-71
2023/11/17 16:52:06;;;;;;;11.40;8.10;;;;;;;2.08;100.00;99260.12;437751;1253;138831;-72
2023/11/17 17:02:14;;;;;;;11.00;9.80;;;;;;;2.05;100.00;99266.11;437863;1253;139531;-70
2023/11/17 17:12:21;;;;;;;10.40;9.40;;;;;;;2.03;100.00;99276.52;438689;1251;138921;-69
2023/11/17 17:22:28;;;;;;;13.50;9.60;;;;;;;1.96;100.00;99283.16;436036;1254;139891;-70
2023/11/17 17:32:34;;;;;;;13.30;10.20;;;;;;;1.93;100.00;99288.59;436476;1253;139101;-68
2023/11/17 17:42:42;;;;;;;12.20;10.70;;;;;;;1.91;100.00;99301.27;436658;1254;139197;-68
2023/11/17 17:52:49;;;;;;;12.90;11.50;;;;;;;1.92;100.00;99311.27;436517;1253;139573;-67
2023/11/17 18:02:58;;;;;;;13.60;11.20;;;;;;;1.91;100.00;99315.76;436113;1251;139958;-68
2023/11/17 18:13:07;;;;;;;13.70;12.30;;;;;;;1.91;100.00;99324.75;436953;1253;140766;-68
2023/11/17 18:23:13;;;;;;;13.80;12.40;;;;;;;1.96;100.00;99328.03;436814;1251;139486;-68
2023/11/17 18:33:20;;;;;;;13.50;11.80;;;;;;;1.98;100.00;99332.83;438208;1254;139120;-68
2023/11/17 18:43:25;;;;;;;;;;;;;;;1.96;100.00;99340.98;436700;1251;139932;-67
2023/11/17 18:53:32;;;;;;;12.60;10.90;;;;;;;1.93;100.00;99348.14;436069;1251;125762;-68
2023/11/17 19:03:38;;;;;;;17.00;13.40;;;;;;;1.85;100.00;99348.73;436428;1254;139719;-68
2023/11/17 19:13:44;;;;;;;15.30;12.70;;;;;;;1.77;100.00;99349.20;436821;1251;139161;-68
2023/11/17 19:23:51;;;;;;;15.70;13.20;;;;;;;1.75;100.00;99357.73;435984;1253;139899;-67
2023/11/17 19:33:57;;;;;;;14.00;12.40;;;;;;;1.76;100.00;99364.42;436782;1254;139272;-68
2023/11/17 19:44:06;;;;;;;15.30;11.60;;;;;;;1.77;100.00;99368.50;437712;1254;139154;-68
2023/11/17 19:54:13;;;;;;;14.60;11.60;;;;;;;1.78;100.00;99363.14;437702;1253;139871;-69
2023/11/17 20:04:20;;;;;;;16.40;11.60;;;;;;;1.78;100.00;99360.55;435952;1251;140196;-68
2023/11/17 20:14:27;;;;;;;16.10;11.70;;;;;;;1.84;100.00;99350.69;436070;1253;139195;-67
2023/11/17 20:24:35;;;;;;;11.10;9.30;;;;;;;1.84;100.00;99341.89;436396;1251;139256;-68
2023/11/17 20:34:41;;;;;;;17.00;12.70;;;;;;;1.86;100.00;99353.73;437418;1254;138955;-67
2023/11/17 20:44:48;;;;;;;17.80;14.60;;;;;;;1.88;100.00;99354.00;437047;1251;139430;-67
2023/11/17 20:54:57;;;;;;;16.90;13.50;;;;;;;1.93;100.00;99365.77;436477;1251;139230;-67
2023/11/17 21:05:07;;;;;;;17.50;13.10;;;;;;;1.95;100.00;99379.69;436443;1249;139348;-68
2023/11/17 21:15:14;;;;;;;17.80;13.60;;;;;;;1.99;100.00;99389.74;436308;1248;139121;-68
2023/11/17 21:25:20;;;;;;;14.80;11.10;;;;;;;2.03;100.00;99391.02;437623;1250;139041;-67
2023/11/17 21:35:31;;;;;;;15.10;11.40;;;;;;;2.05;100.00;99387.84;435861;1254;139689;-67
2023/11/17 21:45:37;;;;;;;15.10;11.90;;;;;;;2.05;100.00;99393.86;436087;1254;139193;-67
2023/11/17 21:55:44;;;;;;;18.20;13.20;;;;;;;2.03;100.00;99404.66;437142;1249;140148;-67
2023/11/17 22:05:51;;;;;;;16.40;11.80;;;;;;;2.02;100.00;99421.94;435983;1253;140207;-67
2023/11/17 22:15:57;;;;;;;18.20;13.60;;;;;;;2.03;100.00;99431.41;439433;1250;141299;-67
2023/11/17 22:26:07;;;;;;;18.60;12.30;;;;;;;2.04;100.00;99433.27;437346;1251;139065;-67
2023/11/17 22:36:14;;;;;;;20.20;14.80;;;;;;;2.05;100.00;99441.20;435895;1253;139989;-68
2023/11/17 22:46:20;;;;;;;14.60;11.50;;;;;;;2.05;100.00;99452.60;437008;1250;143464;-66
2023/11/17 22:56:27;;;;;;;22.70;15.50;;;;;;;2.05;100.00;99453.98;436314;1249;139052;-66
2023/11/17 23:06:34;;;;;;;19.30;13.40;;;;;;;2.04;100.00;99447.80;435470;1250;140297;-67
2023/11/17 23:16:38;;;;;;;;;;;;;;;2.04;100.00;99450.55;435747;1251;139290;-65
2023/11/17 23:26:45;;;;;;;19.70;13.40;;;;;;;2.01;100.00;99449.23;436206;1254;125678;-64
2023/11/17 23:36:50;;;;;;;;;;;;;;;2.00;100.00;99449.61;436249;1254;140856;-65
2023/11/17 23:46:56;;;;;;;22.00;16.50;;;;;;;2.00;100.00;99450.68;437388;1253;125857;-64
2023/11/17 23:57:03;;;;;;;25.40;18.10;;;;;;;1.99;100.00;99451.40;437192;1251;157939;-64
